createdAt,value
2022-11-07T00:02:20.821Z,15.63
2022-11-07T00:07:19.638Z,14.48
2022-11-07T00:12:18.340Z,14.70
2022-11-07T00:17:18.421Z,14.90
2022-11-07T00:22:17.140Z,15.65
2022-11-07T00:27:15.961Z,17.45
2022-11-07T00:32:14.809Z,19.30
2022-11-07T00:37:13.440Z,15.68
2022-11-07T00:42:12.046Z,16.98
2022-11-07T00:47:10.826Z,16.20
2022-11-07T00:52:09.469Z,14.73
2022-11-07T00:57:08.219Z,16.13
2022-11-07T01:02:06.926Z,18.30
2022-11-07T01:07:06.968Z,19.40
2022-11-07T01:12:06.502Z,18.25
2022-11-07T01:17:05.459Z,15.65
2022-11-07T01:22:04.126Z,15.60
2022-11-07T01:27:02.906Z,23.27
2022-11-07T01:32:01.675Z,19.60
2022-11-07T01:37:03.660Z,19.75
2022-11-07T01:42:02.779Z,22.35
2022-11-07T01:47:01.559Z,23.08
2022-11-07T01:52:04.164Z,23.10
2022-11-07T01:57:08.558Z,22.52
2022-11-07T02:02:09.079Z,20.55
2022-11-07T02:07:15.682Z,22.38
2022-11-07T02:12:16.366Z,25.67
2022-11-07T02:17:16.513Z,21.17
2022-11-07T02:22:32.375Z,24.15
2022-11-07T02:27:33.486Z,22.75
2022-11-07T02:32:32.715Z,20.88
2022-11-07T02:37:36.451Z,19.33
2022-11-07T02:42:43.625Z,22.40
2022-11-07T02:47:42.902Z,19.58
2022-11-07T02:52:41.999Z,21.33
2022-11-07T02:57:41.424Z,21.42
2022-11-07T03:02:40.919Z,21.05
2022-11-07T03:07:41.937Z,23.98
2022-11-07T03:12:40.769Z,20.30
2022-11-07T03:17:40.215Z,22.30
2022-11-07T03:22:38.914Z,21.88
2022-11-07T03:27:46.250Z,24.33
2022-11-07T03:32:45.006Z,18.88
2022-11-07T03:37:48.768Z,25.88
2022-11-07T03:42:47.500Z,20.50
2022-11-07T03:47:46.880Z,18.25
2022-11-07T03:52:46.386Z,20.23
2022-11-07T03:57:45.995Z,19.92
2022-11-07T04:02:45.299Z,20.98
2022-11-07T04:07:44.308Z,19.73
2022-11-07T04:13:03.169Z,19.92
2022-11-07T04:18:02.028Z,19.52
2022-11-07T04:23:00.751Z,20.88
2022-11-07T04:27:59.541Z,19.58
2022-11-07T04:33:00.280Z,24.48
2022-11-07T04:38:00.405Z,21.77
2022-11-07T04:42:59.222Z,22.17
2022-11-07T04:47:57.981Z,21.08
2022-11-07T04:52:57.033Z,19.02
2022-11-07T04:57:55.684Z,19.83
2022-11-07T05:02:54.625Z,20.77
2022-11-07T05:07:53.554Z,26.08
2022-11-07T05:12:53.080Z,19.35
2022-11-07T05:17:52.036Z,18.83
2022-11-07T05:23:16.603Z,16.52
2022-11-07T05:28:23.767Z,20.85
2022-11-07T05:33:28.273Z,19.63
2022-11-07T05:38:27.080Z,17.17
2022-11-07T05:43:25.740Z,16.30
2022-11-07T05:48:24.613Z,16.85
2022-11-07T05:53:25.339Z,18.80
2022-11-07T05:58:24.614Z,16.95
2022-11-07T06:03:23.299Z,18.08
2022-11-07T06:08:22.204Z,20.33
2022-11-07T06:13:20.860Z,21.38
2022-11-07T06:18:21.336Z,17.33
2022-11-07T06:23:20.593Z,17.33
2022-11-07T06:28:19.504Z,20.13
2022-11-07T06:33:19.699Z,19.95
2022-11-07T06:38:18.521Z,20.10
2022-11-07T06:43:19.595Z,21.67
2022-11-07T06:48:18.736Z,20.00
2022-11-07T06:53:17.687Z,17.15
2022-11-07T06:58:17.021Z,21.65
2022-11-07T07:03:15.975Z,19.05
2022-11-07T07:08:14.891Z,20.00
2022-11-07T07:13:14.805Z,21.20
2022-11-07T07:18:13.810Z,19.98
2022-11-07T07:23:12.428Z,20.98
2022-11-07T07:28:11.409Z,19.25
2022-11-07T07:33:10.454Z,20.73
2022-11-07T07:38:10.770Z,22.63
2022-11-07T07:43:09.476Z,22.55
2022-11-07T07:48:08.420Z,19.75
2022-11-07T07:53:09.251Z,18.75
2022-11-07T07:58:08.331Z,21.27
2022-11-07T08:03:09.911Z,22.10
2022-11-07T08:08:09.045Z,24.83
2022-11-07T08:13:07.864Z,22.10
2022-11-07T08:18:06.783Z,22.92
2022-11-07T08:23:14.559Z,19.83
2022-11-07T08:28:14.685Z,20.73
2022-11-07T08:33:13.643Z,15.57
2022-11-07T08:38:12.689Z,19.33
2022-11-07T08:43:11.437Z,15.43
2022-11-07T08:48:10.142Z,16.95
2022-11-07T08:53:09.462Z,18.48
2022-11-07T08:58:08.889Z,15.18
2022-11-07T09:03:38.778Z,14.40
2022-11-07T09:08:27.230Z,15.25
2022-11-07T09:13:25.935Z,14.27
2022-11-07T09:18:25.190Z,15.10
2022-11-07T09:23:24.267Z,13.13
2022-11-07T09:28:23.073Z,8.93
2022-11-07T09:33:22.662Z,10.52
2022-11-07T09:38:21.414Z,8.77
2022-11-07T09:43:59.225Z,7.20
2022-11-07T09:49:04.790Z,6.25
2022-11-07T09:54:09.927Z,6.30
2022-11-07T09:59:17.298Z,3.72
2022-11-07T10:04:27.358Z,3.45
2022-11-07T10:09:39.810Z,1.90
2022-11-07T10:14:52.903Z,1.55
2022-11-07T10:20:00.751Z,3.03
2022-11-07T10:25:41.223Z,1.92
2022-11-07T10:30:42.256Z,3.40
2022-11-07T10:35:49.339Z,3.15
2022-11-07T10:40:50.392Z,2.67
2022-11-07T10:45:50.556Z,2.22
2022-11-07T10:50:53.662Z,1.45
2022-11-07T10:55:54.507Z,3.50
2022-11-07T11:01:08.607Z,2.63
2022-11-07T11:06:19.435Z,3.35
2022-11-07T11:11:21.283Z,3.25
2022-11-07T11:16:27.100Z,3.03
2022-11-07T11:21:26.155Z,1.65
2022-11-07T11:26:39.705Z,2.78
2022-11-07T11:31:44.098Z,4.30
2022-11-07T11:36:51.904Z,2.75
2022-11-07T11:41:55.569Z,3.42
2022-11-07T11:47:34.745Z,3.03
2022-11-07T11:52:34.560Z,1.42
2022-11-07T11:58:14.419Z,3.22
2022-11-07T12:08:53.839Z,3.22
2022-11-07T12:14:31.951Z,2.78
2022-11-07T12:19:50.802Z,1.42
2022-11-07T12:24:52.259Z,1.58
2022-11-07T12:30:18.707Z,3.50
2022-11-07T12:35:36.406Z,3.75
2022-11-07T12:40:59.548Z,3.70
2022-11-07T12:46:41.061Z,2.97
2022-11-07T12:52:00.032Z,3.03
2022-11-07T12:57:02.788Z,3.45
2022-11-07T13:02:17.123Z,3.38
2022-11-07T13:07:24.243Z,3.40
2022-11-07T13:12:38.424Z,1.67
2022-11-07T13:17:46.070Z,2.33
2022-11-07T13:22:44.909Z,1.63
2022-11-07T13:27:57.425Z,2.03
2022-11-07T13:32:57.910Z,3.92
2022-11-07T13:38:19.270Z,3.05
2022-11-07T13:43:41.579Z,2.20
2022-11-07T13:48:49.290Z,1.85
2022-11-07T13:54:07.125Z,1.20
2022-11-07T13:59:14.391Z,4.03
2022-11-07T14:04:22.082Z,2.65
2022-11-07T14:09:21.357Z,3.47
2022-11-07T14:14:25.543Z,1.92
2022-11-07T14:19:26.755Z,2.05
2022-11-07T14:24:28.405Z,2.85
2022-11-07T14:29:27.544Z,1.88
2022-11-07T14:34:26.568Z,3.95
2022-11-07T14:39:28.718Z,2.80
2022-11-07T14:44:56.552Z,3.17
2022-11-07T14:49:55.005Z,4.72
2022-11-07T14:55:08.415Z,4.13
2022-11-07T15:00:13.416Z,2.05
2022-11-07T15:05:37.448Z,5.07
2022-11-07T15:10:41.389Z,2.80
2022-11-07T15:15:40.203Z,4.18
2022-11-07T15:20:39.881Z,6.05
2022-11-07T15:25:42.928Z,5.78
2022-11-07T15:30:43.510Z,2.58
2022-11-07T15:35:44.744Z,3.40
2022-11-07T15:40:44.046Z,7.57
2022-11-07T15:45:43.585Z,5.63
2022-11-07T15:50:43.881Z,10.70
2022-11-07T15:55:42.618Z,7.82
2022-11-07T16:00:41.858Z,5.78
2022-11-07T16:05:41.399Z,6.90
2022-11-07T16:10:45.073Z,6.93
2022-11-07T16:15:48.282Z,4.85
2022-11-07T16:20:50.192Z,8.93
2022-11-07T16:25:51.141Z,8.80
2022-11-07T16:30:50.338Z,10.27
2022-11-07T16:35:51.753Z,8.80
2022-11-07T16:40:51.443Z,10.68
2022-11-07T16:45:56.894Z,13.60
2022-11-07T16:50:57.038Z,10.57
2022-11-07T16:56:00.963Z,11.05
2022-11-07T17:01:02.533Z,12.57
2022-11-07T17:06:03.898Z,12.57
2022-11-07T17:11:02.875Z,11.25
2022-11-07T17:16:01.844Z,9.57
2022-11-07T17:21:00.606Z,10.73
2022-11-07T17:26:02.420Z,10.02
2022-11-07T17:31:01.332Z,11.20
2022-11-07T17:36:00.786Z,11.98
2022-11-07T17:41:17.256Z,9.88
2022-11-07T17:46:22.242Z,9.32
2022-11-07T17:51:26.685Z,10.25
2022-11-07T17:56:28.013Z,9.93
2022-11-07T18:01:30.354Z,9.80
2022-11-07T18:06:30.011Z,10.07
2022-11-07T18:11:30.658Z,13.57
2022-11-07T18:16:34.651Z,10.00
2022-11-07T18:21:33.631Z,17.90
2022-11-07T18:26:33.435Z,12.23
2022-11-07T18:31:32.280Z,10.32
2022-11-07T18:36:34.989Z,9.60
2022-11-07T18:41:34.354Z,12.02
2022-11-07T18:46:33.798Z,13.48
2022-11-07T18:51:33.223Z,9.23
2022-11-07T18:56:32.042Z,10.82
2022-11-07T19:01:32.794Z,9.27
2022-11-07T19:06:32.483Z,15.38
2022-11-07T19:11:33.944Z,13.18
2022-11-07T19:16:32.741Z,16.50
2022-11-07T19:21:31.513Z,16.45
2022-11-07T19:26:30.788Z,12.45
2022-11-07T19:31:34.497Z,13.02
2022-11-07T19:36:34.184Z,12.27
2022-11-07T19:41:33.187Z,13.30
2022-11-07T19:46:32.004Z,9.38
2022-11-07T19:51:30.720Z,10.60
2022-11-07T19:56:31.842Z,10.07
2022-11-07T20:01:33.060Z,13.15
2022-11-07T20:06:35.813Z,12.75
2022-11-07T20:11:34.910Z,13.88
2022-11-07T20:16:34.423Z,8.98
2022-11-07T20:21:34.565Z,10.68
2022-11-07T20:26:33.435Z,11.85
2022-11-07T20:31:36.662Z,7.95
2022-11-07T20:36:35.543Z,11.45
2022-11-07T20:41:35.055Z,11.70
2022-11-07T20:46:36.505Z,9.93
2022-11-07T20:51:35.314Z,9.13
2022-11-07T20:56:37.257Z,8.10
2022-11-07T21:01:37.548Z,9.07
2022-11-07T21:06:37.600Z,7.78
2022-11-07T21:11:37.218Z,12.15
2022-11-07T21:16:36.035Z,7.75
2022-11-07T21:21:35.131Z,11.25
2022-11-07T21:26:36.106Z,11.45
2022-11-07T21:31:37.321Z,9.10
2022-11-07T21:36:36.108Z,9.23
2022-11-07T21:41:34.941Z,10.45
2022-11-07T21:46:36.541Z,7.78
2022-11-07T21:51:35.984Z,7.35
2022-11-07T21:56:37.775Z,6.38
2022-11-07T22:01:38.723Z,7.10
2022-11-07T22:06:41.094Z,6.68
2022-11-07T22:11:39.920Z,6.50
2022-11-07T22:16:38.645Z,5.35
2022-11-07T22:21:37.722Z,6.70
2022-11-07T22:26:36.625Z,7.93
2022-11-07T22:31:36.305Z,7.65
2022-11-07T22:36:35.165Z,7.68
2022-11-07T22:41:36.363Z,7.75
2022-11-07T22:46:35.101Z,7.53
2022-11-07T22:51:35.336Z,7.88
2022-11-07T22:56:35.410Z,9.10
2022-11-07T23:01:40.616Z,9.10
2022-11-07T23:06:39.687Z,7.28
2022-11-07T23:11:47.603Z,7.70
2022-11-07T23:16:52.472Z,6.30
2022-11-07T23:21:53.397Z,6.28
2022-11-07T23:26:52.115Z,9.20
2022-11-07T23:31:51.885Z,7.05
2022-11-07T23:36:52.185Z,6.90
2022-11-07T23:41:50.932Z,11.00
2022-11-07T23:47:08.244Z,8.98
2022-11-07T23:52:07.075Z,10.63
2022-11-07T23:57:05.832Z,9.43
